createdAt,value
2018-07-25T00:02:22.390Z,3.87
2018-07-25T00:04:52.081Z,3.83
2018-07-25T00:07:21.960Z,4.00
2018-07-25T00:09:50.537Z,3.77
2018-07-25T00:12:19.751Z,3.80
2018-07-25T00:14:48.303Z,4.33
2018-07-25T00:17:16.917Z,3.90
2018-07-25T00:19:47.354Z,4.17
2018-07-25T00:22:16.154Z,4.23
2018-07-25T00:24:46.414Z,4.10
2018-07-25T00:27:15.729Z,4.13
2018-07-25T00:29:48.726Z,3.77
2018-07-25T00:32:18.574Z,3.70
2018-07-25T00:34:47.123Z,3.77
2018-07-25T00:37:17.473Z,3.53
2018-07-25T00:39:47.665Z,3.83
2018-07-25T00:42:19.152Z,4.20
2018-07-25T00:44:47.701Z,3.90
2018-07-25T00:47:16.234Z,3.97
2018-07-25T00:49:54.682Z,4.13
2018-07-25T00:52:23.793Z,3.97
2018-07-25T00:54:52.357Z,4.30
2018-07-25T00:57:21.058Z,4.17
2018-07-25T00:59:50.604Z,4.10
2018-07-25T01:02:22.601Z,3.93
2018-07-25T01:04:52.593Z,4.20
2018-07-25T01:07:21.373Z,3.77
2018-07-25T01:09:50.157Z,4.00
2018-07-25T01:12:19.455Z,3.50
2018-07-25T01:14:50.330Z,3.70
2018-07-25T01:17:23.778Z,3.47
2018-07-25T01:19:52.573Z,3.63
2018-07-25T01:24:56.257Z,4.00
2018-07-25T01:27:25.557Z,4.37
2018-07-25T01:29:54.134Z,4.47
2018-07-25T01:32:22.693Z,4.45
2018-07-25T01:34:51.553Z,4.20
2018-07-25T01:37:20.097Z,3.67
2018-07-25T01:39:48.683Z,4.27
2018-07-25T01:42:17.517Z,4.60
2018-07-25T01:44:46.054Z,4.03
2018-07-25T01:47:15.362Z,3.83
2018-07-25T01:49:43.999Z,4.47
2018-07-25T01:52:13.825Z,3.70
2018-07-25T01:54:43.833Z,4.40
2018-07-25T01:57:13.912Z,4.07
2018-07-25T01:59:42.465Z,4.37
2018-07-25T02:02:11.941Z,4.40
2018-07-25T02:04:41.125Z,3.93
2018-07-25T02:07:11.365Z,4.33
2018-07-25T02:12:14.797Z,4.37
2018-07-25T02:14:44.265Z,4.23
2018-07-25T02:17:13.504Z,3.90
2018-07-25T02:19:43.676Z,4.37
2018-07-25T02:22:12.233Z,4.57
2018-07-25T02:24:40.767Z,4.10
2018-07-25T02:27:10.233Z,4.47
2018-07-25T02:29:39.810Z,4.43
2018-07-25T02:32:09.195Z,4.00
2018-07-25T02:34:37.734Z,4.53
2018-07-25T02:37:06.266Z,4.20
2018-07-25T02:39:35.154Z,5.30
2018-07-25T02:42:03.773Z,5.27
2018-07-25T02:44:32.320Z,5.00
2018-07-25T02:47:00.842Z,4.97
2018-07-25T02:49:29.647Z,3.87
2018-07-25T02:51:58.177Z,4.40
2018-07-25T02:54:27.606Z,4.63
2018-07-25T02:56:56.259Z,4.00
2018-07-25T02:59:25.527Z,4.53
2018-07-25T03:01:56.360Z,4.37
2018-07-25T03:04:25.215Z,4.97
2018-07-25T03:06:55.825Z,4.40
2018-07-25T03:09:24.477Z,5.10
2018-07-25T03:11:53.033Z,5.13
2018-07-25T03:14:22.895Z,4.97
2018-07-25T03:16:52.448Z,4.70
2018-07-25T03:19:22.121Z,4.77
2018-07-25T03:21:50.678Z,4.57
2018-07-25T03:24:20.099Z,4.20
2018-07-25T03:26:48.638Z,4.67
2018-07-25T03:29:19.090Z,5.03
2018-07-25T03:31:47.938Z,4.70
2018-07-25T03:34:16.530Z,4.90
2018-07-25T03:36:45.088Z,4.83
2018-07-25T03:39:13.639Z,5.33
2018-07-25T03:41:42.176Z,5.00
2018-07-25T03:44:10.744Z,5.70
2018-07-25T03:46:40.078Z,5.67
2018-07-25T03:49:09.875Z,5.90
2018-07-25T03:51:39.037Z,5.87
2018-07-25T03:54:07.644Z,5.50
2018-07-25T03:56:36.334Z,5.23
2018-07-25T03:59:06.825Z,5.30
2018-07-25T04:01:37.448Z,4.33
2018-07-25T04:04:09.826Z,4.70
2018-07-25T04:06:41.374Z,6.10
2018-07-25T04:09:12.938Z,5.63
2018-07-25T04:11:41.427Z,5.07
2018-07-25T04:14:09.957Z,5.07
2018-07-25T04:16:39.789Z,5.40
2018-07-25T04:19:08.330Z,5.63
2018-07-25T04:21:36.877Z,5.97
2018-07-25T04:24:06.725Z,5.20
2018-07-25T04:26:37.169Z,5.40
2018-07-25T04:29:05.738Z,5.40
2018-07-25T04:31:34.517Z,5.83
2018-07-25T04:34:04.318Z,6.97
2018-07-25T04:36:33.604Z,7.17
2018-07-25T04:39:03.298Z,7.30
2018-07-25T04:41:33.431Z,7.77
2018-07-25T04:44:02.763Z,8.23
2018-07-25T04:46:32.136Z,7.40
2018-07-25T04:49:06.243Z,7.33
2018-07-25T04:51:35.429Z,6.17
2018-07-25T04:54:05.160Z,6.70
2018-07-25T04:56:34.572Z,7.23
2018-07-25T04:59:04.410Z,6.37
2018-07-25T05:01:34.280Z,7.50
2018-07-25T05:04:06.034Z,6.70
2018-07-25T05:06:35.278Z,6.10
2018-07-25T05:09:07.418Z,6.00
2018-07-25T05:11:36.308Z,5.70
2018-07-25T05:14:05.920Z,5.90
2018-07-25T05:16:35.953Z,6.43
2018-07-25T05:19:05.942Z,6.13
2018-07-25T05:21:37.589Z,7.23
2018-07-25T05:24:06.652Z,6.73
2018-07-25T05:26:39.250Z,6.40
2018-07-25T05:29:10.627Z,5.33
2018-07-25T05:31:41.926Z,6.87
2018-07-25T05:34:17.203Z,6.50
2018-07-25T05:36:50.375Z,5.60
2018-07-25T05:39:23.171Z,6.17
2018-07-25T05:41:53.459Z,5.53
2018-07-25T05:44:25.876Z,5.70
2018-07-25T05:46:57.642Z,5.83
2018-07-25T05:49:26.549Z,5.73
2018-07-25T05:51:59.701Z,6.00
2018-07-25T05:54:35.182Z,6.37
2018-07-25T05:57:16.291Z,6.10
2018-07-25T05:59:50.013Z,5.83
2018-07-25T06:02:19.543Z,5.40
2018-07-25T06:04:49.191Z,5.87
2018-07-25T06:07:20.427Z,6.00
2018-07-25T06:10:00.080Z,5.20
2018-07-25T06:12:31.960Z,5.00
2018-07-25T06:15:05.116Z,5.57
2018-07-25T06:17:44.691Z,5.17
2018-07-25T06:20:18.356Z,5.57
2018-07-25T06:22:50.797Z,5.50
2018-07-25T06:25:20.396Z,6.30
2018-07-25T06:27:48.938Z,5.40
2018-07-25T06:30:17.641Z,5.53
2018-07-25T06:32:46.877Z,5.10
2018-07-25T06:35:15.974Z,6.03
2018-07-25T06:37:46.654Z,5.90
2018-07-25T06:40:16.654Z,5.30
2018-07-25T06:42:49.777Z,6.43
2018-07-25T06:45:18.348Z,6.47
2018-07-25T06:47:48.121Z,6.03
2018-07-25T06:50:18.117Z,6.60
2018-07-25T06:52:47.385Z,6.20
2018-07-25T06:55:17.618Z,6.67
2018-07-25T06:57:47.609Z,6.87
2018-07-25T07:00:18.117Z,6.50
2018-07-25T07:02:46.665Z,7.17
2018-07-25T07:05:16.160Z,6.70
2018-07-25T07:07:46.182Z,6.70
2018-07-25T07:10:15.009Z,7.13
2018-07-25T07:12:46.722Z,7.27
2018-07-25T07:15:16.860Z,6.10
2018-07-25T07:17:46.144Z,7.93
2018-07-25T07:20:16.608Z,6.93
2018-07-25T07:22:45.259Z,7.23
2018-07-25T07:25:15.311Z,7.33
2018-07-25T07:27:44.516Z,7.33
2018-07-25T07:30:14.613Z,7.47
2018-07-25T07:32:43.192Z,8.53
2018-07-25T07:35:13.171Z,8.17
2018-07-25T07:37:45.199Z,8.17
2018-07-25T07:40:14.597Z,9.63
2018-07-25T07:42:44.838Z,8.70
2018-07-25T07:45:14.662Z,8.17
2018-07-25T07:47:47.489Z,9.33
2018-07-25T07:50:17.781Z,10.20
2018-07-25T07:52:47.269Z,8.87
2018-07-25T07:55:15.923Z,8.00
2018-07-25T07:57:44.449Z,7.13
2018-07-25T08:00:14.448Z,7.97
2018-07-25T08:02:45.014Z,9.80
2018-07-25T08:05:15.969Z,8.60
2018-07-25T08:07:44.738Z,8.10
2018-07-25T08:10:14.425Z,8.97
2018-07-25T08:12:43.651Z,9.67
2018-07-25T08:15:12.637Z,9.40
2018-07-25T08:17:45.031Z,7.93
2018-07-25T08:20:18.633Z,9.23
2018-07-25T08:22:48.504Z,8.60
2018-07-25T08:25:21.853Z,9.77
2018-07-25T08:27:51.017Z,8.47
2018-07-25T08:30:22.589Z,7.73
2018-07-25T08:32:52.336Z,7.53
2018-07-25T08:35:23.222Z,8.60
2018-07-25T08:37:52.135Z,7.60
2018-07-25T08:40:20.915Z,7.87
2018-07-25T08:42:50.266Z,6.57
2018-07-25T08:45:22.393Z,6.13
2018-07-25T08:50:37.328Z,6.30
2018-07-25T08:53:08.011Z,7.00
2018-07-25T08:55:37.630Z,6.40
2018-07-25T08:58:13.691Z,5.97
2018-07-25T09:00:46.725Z,5.00
2018-07-25T09:03:16.033Z,5.63
2018-07-25T09:05:48.518Z,4.77
2018-07-25T09:08:21.095Z,5.10
2018-07-25T09:10:52.901Z,5.23
2018-07-25T09:13:23.748Z,4.80
2018-07-25T09:16:01.416Z,5.27
2018-07-25T09:18:30.786Z,5.33
2018-07-25T09:21:01.009Z,4.20
2018-07-25T09:23:36.293Z,4.50
2018-07-25T09:26:06.044Z,4.60
2018-07-25T09:28:34.602Z,4.70
2018-07-25T09:31:09.598Z,4.67
2018-07-25T09:33:39.303Z,4.50
2018-07-25T09:36:09.202Z,4.50
2018-07-25T09:38:39.218Z,4.60
2018-07-25T09:41:08.541Z,4.03
2018-07-25T09:43:39.046Z,3.93
2018-07-25T09:46:09.605Z,4.20
2018-07-25T09:48:40.345Z,4.17
2018-07-25T09:51:09.707Z,4.43
2018-07-25T09:53:38.982Z,4.27
2018-07-25T09:56:09.998Z,4.03
2018-07-25T09:58:39.724Z,4.00
2018-07-25T10:01:08.331Z,3.70
2018-07-25T10:03:41.729Z,4.20
2018-07-25T10:06:11.180Z,4.30
2018-07-25T10:08:41.381Z,3.37
2018-07-25T10:11:10.998Z,4.20
2018-07-25T10:13:41.755Z,4.03
2018-07-25T10:16:13.266Z,3.63
2018-07-25T10:18:44.638Z,3.67
2018-07-25T10:21:15.958Z,3.40
2018-07-25T10:23:46.871Z,3.80
2018-07-25T10:26:17.631Z,3.85
2018-07-25T10:28:47.895Z,3.10
2018-07-25T10:31:18.113Z,3.53
2018-07-25T10:33:50.457Z,3.23
2018-07-25T10:36:21.419Z,3.60
2018-07-25T10:38:55.675Z,2.87
2018-07-25T10:41:27.775Z,3.47
2018-07-25T10:43:57.023Z,3.00
2018-07-25T10:46:27.345Z,2.90
2018-07-25T10:48:57.003Z,3.10
2018-07-25T10:51:29.558Z,3.37
2018-07-25T10:54:00.439Z,3.00
2018-07-25T10:56:31.229Z,3.40
2018-07-25T10:59:00.749Z,3.83
2018-07-25T11:01:31.510Z,4.00
2018-07-25T11:04:00.733Z,4.00
2018-07-25T11:06:30.769Z,4.10
2018-07-25T11:09:01.738Z,4.97
2018-07-25T11:11:31.183Z,4.00
2018-07-25T11:14:00.865Z,3.83
2018-07-25T11:16:31.628Z,3.90
2018-07-25T11:19:01.143Z,4.13
2018-07-25T11:21:31.154Z,4.40
2018-07-25T11:24:01.307Z,4.50
2018-07-25T11:26:30.780Z,3.90
2018-07-25T11:28:59.342Z,4.23
2018-07-25T11:31:30.462Z,4.37
2018-07-25T11:33:59.699Z,4.33
2018-07-25T11:36:29.147Z,4.13
2018-07-25T11:39:00.235Z,4.40
2018-07-25T11:41:31.210Z,4.20
2018-07-25T11:44:00.033Z,4.30
2018-07-25T11:46:29.610Z,3.50
2018-07-25T11:48:58.743Z,4.13
2018-07-25T11:51:28.093Z,3.50
2018-07-25T11:54:00.129Z,3.67
2018-07-25T11:56:30.909Z,3.40
2018-07-25T11:59:03.357Z,3.73
2018-07-25T12:01:47.469Z,3.37
2018-07-25T12:04:17.744Z,3.77
2018-07-25T12:06:46.918Z,3.07
2018-07-25T12:09:21.573Z,3.37
2018-07-25T12:11:51.017Z,3.00
2018-07-25T12:14:22.153Z,2.60
2018-07-25T12:16:59.737Z,2.70
2018-07-25T12:19:28.828Z,2.60
2018-07-25T12:21:57.538Z,2.83
2018-07-25T12:24:26.226Z,2.53
2018-07-25T12:26:55.073Z,2.63
2018-07-25T12:29:24.760Z,2.43
2018-07-25T12:32:02.020Z,2.43
2018-07-25T12:34:37.720Z,2.13
2018-07-25T12:37:10.503Z,2.30
2018-07-25T12:39:39.917Z,2.37
2018-07-25T12:42:10.465Z,2.20
2018-07-25T12:44:39.777Z,2.23
2018-07-25T12:47:10.236Z,2.10
2018-07-25T12:49:39.951Z,2.27
2018-07-25T12:52:10.506Z,1.60
2018-07-25T12:54:39.361Z,1.97
2018-07-25T12:57:08.886Z,1.73
2018-07-25T12:59:37.414Z,2.30
2018-07-25T13:02:06.864Z,2.50
2018-07-25T13:04:36.188Z,1.80
2018-07-25T13:07:04.779Z,2.00
2018-07-25T13:09:34.155Z,2.60
2018-07-25T13:12:03.354Z,2.03
2018-07-25T13:14:33.530Z,1.70
2018-07-25T13:17:02.800Z,2.43
2018-07-25T13:19:33.537Z,2.30
2018-07-25T13:22:04.581Z,2.10
2018-07-25T13:24:34.597Z,2.47
2018-07-25T13:27:03.165Z,2.53
2018-07-25T13:29:36.167Z,2.23
2018-07-25T13:32:05.565Z,2.30
2018-07-25T13:34:34.756Z,2.50
2018-07-25T13:37:05.979Z,2.40
2018-07-25T13:39:38.089Z,2.73
2018-07-25T13:42:15.389Z,2.10
2018-07-25T13:44:43.974Z,2.40
2018-07-25T13:47:13.079Z,2.20
2018-07-25T13:49:44.190Z,2.20
2018-07-25T13:52:13.554Z,2.20
2018-07-25T13:54:42.115Z,2.30
2018-07-25T13:57:10.659Z,2.47
2018-07-25T13:59:40.722Z,2.20
2018-07-25T14:02:09.517Z,2.07
2018-07-25T14:04:38.758Z,2.17
2018-07-25T14:07:09.774Z,2.10
2018-07-25T14:09:38.366Z,2.00
2018-07-25T14:12:08.842Z,2.20
2018-07-25T14:14:38.165Z,2.47
2018-07-25T14:17:07.733Z,2.50
2018-07-25T14:19:37.033Z,2.13
2018-07-25T14:22:06.517Z,2.53
2018-07-25T14:24:36.370Z,2.60
2018-07-25T14:27:05.520Z,2.60
2018-07-25T14:29:34.621Z,2.77
2018-07-25T14:32:05.373Z,3.30
2018-07-25T14:34:34.751Z,2.33
2018-07-25T14:37:05.157Z,3.37
2018-07-25T14:39:34.754Z,2.70
2018-07-25T14:42:03.542Z,2.50
2018-07-25T14:44:32.480Z,2.80
2018-07-25T14:47:01.163Z,3.23
2018-07-25T14:49:30.330Z,2.97
2018-07-25T14:52:00.672Z,2.33
2018-07-25T14:54:30.133Z,3.00
2018-07-25T14:57:01.208Z,2.80
2018-07-25T14:59:32.537Z,2.90
2018-07-25T15:02:01.770Z,2.93
2018-07-25T15:04:30.567Z,2.90
2018-07-25T15:06:59.111Z,3.10
2018-07-25T15:09:29.042Z,3.00
2018-07-25T15:12:02.854Z,3.50
2018-07-25T15:14:32.024Z,3.60
2018-07-25T15:17:01.074Z,3.33
2018-07-25T15:19:29.872Z,3.77
2018-07-25T15:21:59.163Z,3.37
2018-07-25T15:24:28.726Z,3.33
2018-07-25T15:26:59.985Z,3.57
2018-07-25T15:29:28.697Z,3.80
2018-07-25T15:31:57.702Z,4.50
2018-07-25T15:34:27.880Z,3.93
2018-07-25T15:36:58.134Z,3.70
2018-07-25T15:39:28.330Z,3.80
2018-07-25T15:41:59.420Z,4.37
2018-07-25T15:44:28.485Z,3.93
2018-07-25T15:46:58.002Z,3.93
2018-07-25T15:49:27.145Z,4.00
2018-07-25T15:51:57.243Z,4.50
2018-07-25T15:54:26.507Z,4.50
2018-07-25T15:56:59.850Z,3.70
2018-07-25T15:59:28.410Z,4.10
2018-07-25T16:01:57.623Z,3.53
2018-07-25T16:04:26.949Z,3.40
2018-07-25T16:06:57.018Z,3.70
2018-07-25T16:09:25.827Z,3.50
2018-07-25T16:11:55.377Z,3.23
2018-07-25T16:14:32.745Z,3.50
2018-07-25T16:17:02.942Z,3.43
2018-07-25T16:19:33.214Z,3.90
2018-07-25T16:22:05.465Z,3.33
2018-07-25T16:24:34.001Z,3.47
2018-07-25T16:27:03.833Z,3.43
2018-07-25T16:29:33.207Z,3.37
2018-07-25T16:32:02.405Z,3.87
2018-07-25T16:34:33.290Z,3.60
2018-07-25T16:37:01.893Z,3.47
2018-07-25T16:39:30.516Z,3.57
2018-07-25T16:41:59.065Z,3.10
2018-07-25T16:44:28.853Z,3.47
2018-07-25T16:46:57.421Z,3.37
2018-07-25T16:49:25.980Z,3.70
2018-07-25T16:51:54.508Z,3.43
2018-07-25T16:54:23.131Z,4.50
2018-07-25T16:56:51.752Z,4.37
2018-07-25T16:59:20.318Z,4.07
2018-07-25T17:01:48.898Z,4.90
2018-07-25T17:04:17.421Z,4.10
2018-07-25T17:06:46.106Z,4.30
2018-07-25T17:09:15.291Z,4.73
2018-07-25T17:11:44.027Z,4.57
2018-07-25T17:14:12.633Z,4.40
2018-07-25T17:16:41.198Z,4.30
2018-07-25T17:19:09.736Z,4.37
2018-07-25T17:21:38.365Z,4.30
2018-07-25T17:24:07.186Z,3.97
2018-07-25T17:26:36.652Z,7.97
2018-07-25T17:29:05.255Z,7.13
2018-07-25T17:31:34.860Z,6.13
2018-07-25T17:34:03.450Z,4.80
2018-07-25T17:36:31.994Z,4.87
2018-07-25T17:39:00.561Z,3.80
2018-07-25T17:41:29.172Z,3.60
2018-07-25T17:43:59.086Z,3.77
2018-07-25T17:46:27.662Z,3.73
2018-07-25T17:48:57.025Z,3.67
2018-07-25T17:51:25.696Z,4.30
2018-07-25T17:53:55.436Z,3.50
2018-07-25T17:56:24.221Z,3.23
2018-07-25T17:58:52.767Z,4.20
2018-07-25T18:01:22.581Z,3.97
2018-07-25T18:03:51.314Z,3.37
2018-07-25T18:06:19.874Z,3.50
2018-07-25T18:08:48.514Z,3.57
2018-07-25T18:11:17.075Z,3.90
2018-07-25T18:13:51.415Z,4.00
2018-07-25T18:16:20.005Z,3.80
2018-07-25T18:18:48.566Z,3.77
2018-07-25T18:21:17.142Z,4.10
2018-07-25T18:23:45.397Z,4.07
2018-07-25T18:26:13.929Z,3.60
2018-07-25T18:28:42.634Z,3.60
2018-07-25T18:31:11.238Z,3.97
2018-07-25T18:33:39.799Z,3.80
2018-07-25T18:36:09.121Z,3.80
2018-07-25T18:38:38.451Z,3.63
2018-07-25T18:41:08.573Z,3.40
2018-07-25T18:43:38.137Z,3.77
2018-07-25T18:46:07.443Z,3.50
2018-07-25T18:48:36.225Z,3.30
2018-07-25T18:51:04.870Z,3.47
2018-07-25T18:53:33.432Z,3.70
2018-07-25T18:56:02.693Z,3.37
2018-07-25T18:58:31.347Z,3.90
2018-07-25T19:01:00.121Z,4.10
2018-07-25T19:03:28.790Z,3.93
2018-07-25T19:05:58.378Z,3.70
2018-07-25T19:08:27.918Z,3.73
2018-07-25T19:10:56.498Z,4.23
2018-07-25T19:13:34.786Z,3.27
2018-07-25T19:16:10.193Z,3.83
2018-07-25T19:18:39.818Z,3.70
2018-07-25T19:21:12.423Z,3.97
2018-07-25T19:23:42.014Z,3.57
2018-07-25T19:26:10.599Z,3.77
2018-07-25T19:28:39.784Z,3.97
2018-07-25T19:31:08.965Z,4.30
2018-07-25T19:33:39.155Z,4.20
2018-07-25T19:36:07.750Z,4.53
2018-07-25T19:38:40.417Z,3.70
2018-07-25T19:41:08.942Z,4.07
2018-07-25T19:43:38.206Z,3.97
2018-07-25T19:46:07.999Z,3.80
2018-07-25T19:48:37.994Z,3.97
2018-07-25T19:51:08.438Z,3.47
2018-07-25T19:53:37.097Z,4.30
2018-07-25T19:56:06.694Z,3.83
2018-07-25T19:58:35.765Z,3.97
2018-07-25T20:01:05.827Z,4.50
2018-07-25T20:03:34.346Z,3.90
2018-07-25T20:06:02.914Z,4.37
2018-07-25T20:08:37.234Z,4.13
2018-07-25T20:11:06.426Z,4.60
2018-07-25T20:13:40.853Z,3.90
2018-07-25T20:16:09.360Z,5.07
2018-07-25T20:18:42.001Z,6.03
2018-07-25T20:21:12.295Z,5.27
2018-07-25T20:23:41.993Z,4.63
2018-07-25T20:26:11.062Z,4.57
2018-07-25T20:28:40.594Z,4.13
2018-07-25T20:31:09.858Z,4.50
2018-07-25T20:33:40.563Z,4.63
2018-07-25T20:36:09.142Z,4.10
2018-07-25T20:38:38.597Z,4.20
2018-07-25T20:41:12.158Z,4.40
2018-07-25T20:43:40.734Z,3.90
2018-07-25T20:46:09.265Z,4.57
2018-07-25T20:48:39.563Z,3.93
2018-07-25T20:51:08.081Z,3.93
2018-07-25T20:53:55.609Z,4.00
2018-07-25T20:56:24.222Z,4.77
2018-07-25T20:58:52.818Z,4.30
2018-07-25T21:01:22.943Z,4.60
2018-07-25T21:04:05.138Z,3.90
2018-07-25T21:06:40.608Z,4.67
2018-07-25T21:09:09.354Z,3.87
2018-07-25T21:11:44.383Z,4.10
2018-07-25T21:14:20.118Z,4.27
2018-07-25T21:17:04.684Z,4.13
2018-07-25T21:19:46.760Z,3.93
2018-07-25T21:25:26.360Z,4.40
2018-07-25T21:28:14.289Z,4.47
2018-07-25T21:31:01.987Z,4.00
2018-07-25T21:33:35.178Z,4.30
2018-07-25T21:36:05.045Z,4.20
2018-07-25T21:38:42.359Z,4.03
2018-07-25T21:41:25.559Z,3.90
2018-07-25T21:44:06.509Z,3.90
2018-07-25T21:46:37.374Z,4.13
2018-07-25T21:49:08.051Z,3.90
2018-07-25T21:51:39.225Z,3.73
2018-07-25T21:54:07.865Z,4.07
2018-07-25T21:56:43.065Z,4.50
2018-07-25T21:59:14.596Z,3.93
2018-07-25T22:01:52.633Z,4.13
2018-07-25T22:04:23.555Z,4.07
2018-07-25T22:06:57.073Z,3.83
2018-07-25T22:09:28.326Z,3.90
2018-07-25T22:12:01.899Z,3.73
2018-07-25T22:14:36.112Z,3.63
2018-07-25T22:17:04.907Z,4.10
2018-07-25T22:19:36.341Z,3.70
2018-07-25T22:22:09.117Z,4.10
2018-07-25T22:24:41.939Z,4.27
2018-07-25T22:27:18.593Z,3.60
2018-07-25T22:29:59.270Z,4.20
2018-07-25T22:32:31.539Z,4.03
2018-07-25T22:35:02.359Z,4.10
2018-07-25T22:37:34.508Z,4.13
2018-07-25T22:40:16.000Z,5.30
2018-07-25T22:42:50.975Z,3.60
2018-07-25T22:45:29.651Z,4.23
2018-07-25T22:48:13.408Z,4.43
2018-07-25T22:50:58.860Z,4.67
2018-07-25T22:53:30.708Z,4.00
2018-07-25T22:56:00.261Z,3.87
2018-07-25T22:58:29.914Z,4.10
2018-07-25T23:01:03.340Z,4.67
2018-07-25T23:03:37.941Z,4.93
2018-07-25T23:06:08.153Z,4.50
2018-07-25T23:08:44.615Z,4.53
2018-07-25T23:11:28.153Z,3.93
2018-07-25T23:14:23.362Z,3.93
2018-07-25T23:17:03.640Z,4.23
2018-07-25T23:19:47.170Z,4.57
2018-07-25T23:22:34.574Z,4.30
2018-07-25T23:25:22.710Z,4.00
2018-07-25T23:28:20.507Z,4.23
2018-07-25T23:31:06.465Z,4.13
2018-07-25T23:33:55.342Z,4.13
2018-07-25T23:36:35.512Z,4.30
2018-07-25T23:42:28.431Z,3.87
2018-07-25T23:45:12.102Z,4.00
2018-07-25T23:48:00.230Z,4.37
2018-07-25T23:51:08.469Z,4.63
2018-07-25T23:53:53.978Z,4.20
2018-07-25T23:56:41.832Z,4.63
2018-07-25T23:59:18.099Z,4.40
